Time;durP1;ratioP1;P1;durP2;ratioP2;P2;SDS_P1;SDS_P2;PMS_P1;PMS_P2;Temp;Humidity;BMP_temperature;BMP_pressure;BME280_temperature;BME280_humidity;BME280_pressure;Samples;Min_cycle;Max_cycle;Signal;HPM_P1;HPM_P2
2021/04/11 00:00:41;;;;;;;65.60;20.00;;;;;;;-1.67;89.40;101911.58;1743982;82;20987;-41
2021/04/11 00:03:15;;;;;;;68.55;22.17;;;;;;;-1.52;89.76;101915.34;1744051;82;20963;-43
2021/04/11 00:05:45;;;;;;;66.70;19.70;;;;;;;-1.33;89.99;101910.89;1744092;82;21035;-41
2021/04/11 00:08:13;;;;;;;49.18;19.87;;;;;;;-1.30;89.83;101914.86;1744075;82;21583;-41
2021/04/11 00:10:45;;;;;;;43.70;20.62;;;;;;;-1.21;90.15;101911.94;1744151;82;22290;-41
2021/04/11 00:13:17;;;;;;;49.73;22.13;;;;;;;-1.17;90.10;101914.70;1744027;82;21524;-41
2021/04/11 00:15:45;;;;;;;65.15;23.98;;;;;;;-1.21;90.00;101910.26;1744010;82;20967;-41
2021/04/11 00:18:12;;;;;;;53.00;21.95;;;;;;;-1.25;90.02;101905.81;1743988;82;21018;-42
2021/04/11 00:20:40;;;;;;;52.73;21.40;;;;;;;-1.32;89.94;101915.18;1744070;82;21026;-42
2021/04/11 00:23:09;;;;;;;77.47;22.98;;;;;;;-1.37;90.01;101919.14;1744035;82;21388;-42
2021/04/11 00:25:39;;;;;;;76.67;24.25;;;;;;;-1.43;90.08;101920.05;1745520;82;20943;-42
2021/04/11 00:28:09;;;;;;;52.53;20.88;;;;;;;-1.46;90.17;101924.59;1749664;82;21504;-41
2021/04/11 00:30:37;;;;;;;59.95;22.25;;;;;;;-1.52;90.09;101925.13;1749631;80;21049;-41
2021/04/11 00:33:06;;;;;;;72.20;22.85;;;;;;;-1.58;90.06;101923.53;1749635;82;21062;-43
2021/04/11 00:35:33;;;;;;;89.75;23.95;;;;;;;-1.64;89.97;101930.78;1749565;82;21358;-42
2021/04/11 00:38:01;;;;;;;64.82;22.07;;;;;;;-1.70;90.04;101935.16;1749522;82;21054;-43
2021/04/11 00:40:32;;;;;;;49.83;21.33;;;;;;;-1.73;90.06;101936.26;1749585;82;20958;-41
2021/04/11 00:43:10;;;;;;;59.05;22.65;;;;;;;-1.78;90.09;101941.06;1749542;82;21063;-42
2021/04/11 00:46:18;;;;;;;72.22;24.20;;;;;;;-1.81;90.24;101941.28;1749558;82;21480;-41
2021/04/11 00:48:49;;;;;;;129.25;29.18;;;;;;;-1.82;90.40;101943.34;1749589;82;21278;-42
2021/04/11 00:51:20;;;;;;;80.00;24.47;;;;;;;-1.83;90.49;101946.29;1749544;82;21028;-41
2021/04/11 00:53:47;;;;;;;77.78;22.82;;;;;;;-1.82;90.62;101949.69;1749604;82;21030;-42
2021/04/11 00:56:15;;;;;;;70.20;22.93;;;;;;;-1.85;90.58;101950.41;1749555;82;21322;-42
2021/04/11 00:58:43;;;;;;;78.50;24.18;;;;;;;-1.88;90.57;101954.91;1698844;82;21100;-41
2021/04/11 01:01:11;;;;;;;92.20;24.18;;;;;;;-1.90;90.58;101951.78;1749531;82;21375;-42
2021/04/11 01:03:39;;;;;;;100.15;26.70;;;;;;;-1.92;90.71;101946.64;1746882;82;21034;-42
2021/04/11 01:06:16;;;;;;;97.33;25.37;;;;;;;-1.92;90.88;101950.83;1749535;82;21074;-42
2021/04/11 01:08:44;;;;;;;89.40;25.72;;;;;;;-1.90;91.06;101953.05;1749561;82;20987;-41
2021/04/11 01:11:18;;;;;;;110.95;26.75;;;;;;;-1.90;91.16;101957.75;1749593;82;21042;-41
2021/04/11 01:13:54;;;;;;;66.92;26.80;;;;;;;-1.93;91.09;101965.20;1749705;82;21209;-41
2021/04/11 01:16:21;;;;;;;80.03;26.33;;;;;;;-1.96;91.13;101966.30;1749570;82;21595;-41
2021/04/11 01:18:50;;;;;;;101.12;27.82;;;;;;;-1.98;91.14;101966.61;1749530;82;20943;-40
2021/04/11 01:21:47;;;;;;;83.45;27.80;;;;;;;-2.00;91.12;101971.10;1749541;82;20943;-41
2021/04/11 01:24:20;;;;;;;82.10;28.15;;;;;;;-2.04;91.16;101968.39;1749708;82;20994;-40
2021/04/11 01:26:51;;;;;;;79.25;25.50;;;;;;;-2.04;91.34;101973.84;1745598;82;21335;-41
2021/04/11 01:29:19;;;;;;;90.12;25.55;;;;;;;-2.04;91.43;101978.55;1743927;82;21012;-41
2021/04/11 01:31:47;;;;;;;95.07;26.33;;;;;;;-2.05;91.46;101977.17;1743966;80;20943;-41
2021/04/11 01:34:16;;;;;;;119.35;29.23;;;;;;;-2.06;91.42;101980.50;1743858;82;20975;-41
2021/04/11 01:36:48;;;;;;;82.67;26.27;;;;;;;-2.10;91.32;101984.92;1722761;82;20952;-41
2021/04/11 01:39:24;;;;;;;66.45;26.10;;;;;;;-2.11;91.55;101980.63;1723733;82;21386;-41
2021/04/11 01:41:54;;;;;;;74.40;26.40;;;;;;;-2.00;92.08;101989.77;1743791;82;21512;-41
2021/04/11 01:44:26;;;;;;;54.33;25.48;;;;;;;-1.91;92.09;101980.13;1744014;82;21014;-42
2021/04/11 01:46:54;;;;;;;71.00;26.15;;;;;;;-1.86;92.03;101985.85;1743956;82;21576;-40
2021/04/11 01:49:23;;;;;;;71.67;27.87;;;;;;;-1.90;91.87;101984.79;1743958;82;20994;-41
2021/04/11 01:52:04;;;;;;;65.28;28.27;;;;;;;-1.93;91.96;101979.16;1743984;82;21119;-42
2021/04/11 01:54:34;;;;;;;69.20;28.42;;;;;;;-1.94;91.94;101982.87;1743865;82;21070;-41
2021/04/11 01:57:08;;;;;;;83.12;27.70;;;;;;;-1.96;91.87;101984.45;1725136;82;20952;-40
2021/04/11 01:59:36;;;;;;;70.45;28.47;;;;;;;-1.97;91.89;101988.66;1743284;82;20971;-41
2021/04/11 02:02:06;;;;;;;65.45;28.32;;;;;;;-2.00;91.90;101977.45;1743907;82;21049;-40
2021/04/11 02:04:34;;;;;;;70.30;31.12;;;;;;;-2.04;91.98;101978.55;1744043;82;22366;-41
2021/04/11 02:07:03;;;;;;;68.55;31.33;;;;;;;-2.05;91.96;101988.59;1743833;82;21058;-41
2021/04/11 02:09:36;;;;;;;71.72;31.48;;;;;;;-2.08;91.85;101985.88;1743813;82;21035;-41
2021/04/11 02:12:22;;;;;;;76.80;33.02;;;;;;;-2.11;91.88;101989.14;1743905;82;21010;-41
2021/04/11 02:14:52;;;;;;;76.12;31.52;;;;;;;-2.17;92.04;101987.48;1743516;82;20959;-42
2021/04/11 02:17:20;;;;;;;65.70;33.38;;;;;;;-2.20;92.09;101984.39;1743982;82;21368;-42
2021/04/11 02:19:51;;;;;;;71.05;31.68;;;;;;;-2.23;92.00;101988.03;1743897;82;20958;-42
2021/04/11 02:22:26;;;;;;;73.83;34.13;;;;;;;-2.29;91.93;101992.72;1744020;82;21476;-40
2021/04/11 02:24:55;;;;;;;70.52;32.65;;;;;;;-2.34;91.97;101982.32;1744013;82;21169;-41
2021/04/11 02:27:23;;;;;;;74.10;32.23;;;;;;;-2.38;92.00;101982.04;1677822;82;21007;-42
2021/04/11 02:29:50;;;;;;;76.02;33.90;;;;;;;-2.43;91.96;101983.02;1742188;82;21358;-41
2021/04/11 02:32:19;;;;;;;76.92;33.13;;;;;;;-2.46;92.05;101990.08;1742011;82;21035;-41
2021/04/11 02:34:47;;;;;;;83.75;36.63;;;;;;;-2.51;92.11;101994.38;1742132;82;21061;-41
2021/04/11 02:37:28;;;;;;;73.55;32.03;;;;;;;-2.54;92.12;101996.33;1742025;82;20982;-41
2021/04/11 02:39:57;;;;;;;73.62;33.08;;;;;;;-2.55;92.21;101997.12;1742119;82;21504;-41
2021/04/11 02:42:31;;;;;;;74.37;34.95;;;;;;;-2.54;92.32;102005.62;1742075;82;21177;-41
2021/04/11 02:45:08;;;;;;;85.28;36.83;;;;;;;-2.57;92.24;101995.30;1742090;82;21085;-42
2021/04/11 02:47:37;;;;;;;80.32;34.03;;;;;;;-2.59;92.15;101990.11;1741731;82;20986;-42
2021/04/11 02:50:07;;;;;;;65.78;31.55;;;;;;;-2.64;92.04;101988.59;1742011;82;21117;-44
2021/04/11 02:52:40;;;;;;;71.75;34.08;;;;;;;-2.70;92.13;101997.08;1742081;82;21086;-40
2021/04/11 02:55:11;;;;;;;80.75;36.08;;;;;;;-2.75;92.15;101994.66;1742073;82;21449;-41
2021/04/11 02:57:41;;;;;;;79.35;33.50;;;;;;;-2.77;92.20;101994.95;1742091;82;21165;-42
2021/04/11 03:00:16;;;;;;;66.72;34.23;;;;;;;-2.72;92.48;101990.17;1742077;82;21015;-41
2021/04/11 03:02:45;;;;;;;88.72;40.58;;;;;;;-2.71;92.52;101993.20;1742160;82;21180;-42
2021/04/11 03:05:16;;;;;;;81.90;39.13;;;;;;;-2.74;92.51;101985.00;1742181;82;21611;-40
2021/04/11 03:07:48;;;;;;;82.88;39.18;;;;;;;-2.72;92.59;101994.84;1715768;82;21443;-41
2021/04/11 03:10:56;;;;;;;91.30;41.98;;;;;;;-2.70;92.69;102000.02;1740862;82;21019;-41
2021/04/11 03:13:24;;;;;;;71.82;34.95;;;;;;;-2.73;92.61;102003.64;1708061;82;21556;-41
2021/04/11 03:15:56;;;;;;;70.52;32.83;;;;;;;-2.76;92.71;101995.44;1742151;82;21015;-41
2021/04/11 03:18:24;;;;;;;69.55;32.20;;;;;;;-2.71;92.91;101999.13;1742245;82;21086;-41
2021/04/11 03:20:52;;;;;;;81.57;34.33;;;;;;;-2.60;93.27;101999.40;1715464;82;21346;-43
2021/04/11 03:23:23;;;;;;;74.58;33.85;;;;;;;-2.50;93.33;102002.48;1716007;82;21093;-41
2021/04/11 03:26:01;;;;;;;91.50;36.93;;;;;;;-2.46;93.37;101995.53;1742206;82;21043;-42
2021/04/11 03:28:38;;;;;;;84.17;36.53;;;;;;;-2.41;93.24;102002.16;1725783;82;21002;-42
2021/04/11 03:31:26;;;;;;;84.40;36.55;;;;;;;-2.42;93.12;102009.28;1726141;82;21018;-41
2021/04/11 03:33:58;;;;;;;89.58;36.60;;;;;;;-2.43;93.10;102012.20;1744080;82;21382;-41
2021/04/11 03:36:25;;;;;;;86.92;36.40;;;;;;;-2.41;93.17;102010.63;1744005;82;21027;-41
2021/04/11 03:38:54;;;;;;;120.45;38.48;;;;;;;-2.35;93.33;102007.58;1744001;82;21034;-42
2021/04/11 03:41:22;;;;;;;88.87;37.40;;;;;;;-2.23;93.44;102009.97;1722965;82;21003;-41
2021/04/11 03:43:53;;;;;;;90.95;37.40;;;;;;;-2.04;93.75;102006.84;1743835;82;21066;-42
2021/04/11 03:46:44;;;;;;;99.05;36.25;;;;;;;-1.79;94.02;102012.06;1743299;82;21208;-41
2021/04/11 03:49:49;;;;;;;108.07;40.03;;;;;;;-1.60;94.04;102013.59;1743969;82;21046;-41
2021/04/11 03:52:33;;;;;;;133.25;43.58;;;;;;;-1.39;94.01;102018.52;1743980;82;21011;-42
2021/04/11 03:55:05;;;;;;;141.20;38.60;;;;;;;-1.21;93.89;102013.19;1725008;82;21027;-41
2021/04/11 03:57:48;;;;;;;82.37;34.92;;;;;;;-1.05;93.83;102020.39;1744183;82;21010;-41
2021/04/11 04:00:13;;;;;;;90.75;35.20;;;;;;;-0.92;93.77;102020.25;1743596;82;21384;-40
2021/04/11 04:02:43;;;;;;;97.65;33.88;;;;;;;-0.78;93.60;102020.13;1743982;82;20967;-42
2021/04/11 04:05:17;;;;;;;76.77;30.00;;;;;;;-0.66;93.51;102030.94;1744042;82;21050;-41
2021/04/11 04:07:52;;;;;;;70.28;29.00;;;;;;;-0.52;93.51;102024.44;1743991;82;21200;-42
2021/04/11 04:10:25;;;;;;;87.50;33.83;;;;;;;-0.44;93.46;102020.23;1744110;82;22069;-41
2021/04/11 04:13:34;;;;;;;85.50;30.80;;;;;;;-0.28;93.49;102022.69;1743832;82;21383;-41
2021/04/11 04:16:45;;;;;;;98.75;31.02;;;;;;;-0.13;93.42;102029.81;1744015;82;21066;-41
2021/04/11 04:19:40;;;;;;;97.75;32.20;;;;;;;0.12;93.39;102033.21;1713523;82;21078;-41
2021/04/11 04:22:37;;;;;;;112.22;34.08;;;;;;;0.43;93.27;102036.41;1744015;82;21002;-41
2021/04/11 04:25:15;;;;;;;134.05;35.17;;;;;;;0.69;93.08;102038.06;1743418;82;20915;-41
2021/04/11 04:28:10;;;;;;;94.62;33.80;;;;;;;0.99;92.81;102045.39;1747183;82;22267;-41
2021/04/11 04:30:59;;;;;;;81.60;31.40;;;;;;;1.28;92.61;102060.78;1746810;82;21010;-42
2021/04/11 04:33:44;;;;;;;92.92;31.50;;;;;;;1.70;92.49;102066.84;1747981;82;20907;-41
2021/04/11 04:36:38;;;;;;;100.85;35.15;;;;;;;2.16;92.04;102067.97;1749543;82;21042;-41
2021/04/11 04:39:34;;;;;;;84.28;31.82;;;;;;;2.59;91.06;102067.16;1749382;82;20915;-41
2021/04/11 04:42:31;;;;;;;63.60;28.52;;;;;;;2.99;90.03;102067.00;1739836;82;21548;-40
2021/04/11 04:45:25;;;;;;;59.70;27.37;;;;;;;3.39;88.13;102068.48;1749543;82;21023;-40
2021/04/11 04:48:20;;;;;;;79.85;29.35;;;;;;;3.45;80.32;102067.85;1749553;82;21007;-41
2021/04/11 04:50:54;;;;;;;66.57;28.83;;;;;;;3.45;80.32;102067.85;1749589;82;20943;-41
2021/04/11 04:53:39;;;;;;;81.60;29.20;;;;;;;3.47;78.55;102068.78;1749570;82;21038;-41
2021/04/11 04:56:12;;;;;;;51.00;23.92;;;;;;;3.61;78.55;102068.42;1749491;81;21483;-42
2021/04/11 04:58:48;;;;;;;67.20;25.90;;;;;;;3.85;77.31;102065.85;1749468;82;21078;-42
2021/04/11 05:01:22;;;;;;;70.57;25.32;;;;;;;4.02;72.91;102068.60;1749501;82;21023;-42
2021/04/11 05:03:54;;;;;;;;;;;;;;;4.17;70.65;102070.81;1751845;82;21050;-41
2021/04/11 05:06:35;;;;;;;72.67;23.52;;;;;;;4.38;69.57;102065.06;1749531;82;20154;-41
2021/04/11 05:09:33;;;;;;;59.93;23.12;;;;;;;4.65;65.63;102060.36;1889853;76;22654;-41
2021/04/11 05:12:21;;;;;;;43.17;20.68;;;;;;;4.73;63.92;102066.63;1860800;77;20938;-40
2021/04/11 05:14:56;;;;;;;53.40;20.68;;;;;;;4.83;60.06;102063.52;1835713;77;21041;-43
2021/04/11 05:17:32;;;;;;;41.77;18.75;;;;;;;5.01;60.58;102055.93;1860680;77;21677;-42
2021/04/11 05:20:09;;;;;;;38.33;17.65;;;;;;;5.20;58.71;102051.34;1860683;77;20990;-40
2021/04/11 05:22:50;;;;;;;33.25;17.12;;;;;;;5.34;57.47;102054.32;1860686;77;20962;-41
2021/04/11 05:25:32;;;;;;;27.42;15.65;;;;;;;5.44;55.74;102049.89;1860383;77;21013;-42
2021/04/11 05:28:23;;;;;;;28.87;16.35;;;;;;;5.58;54.58;102057.98;1837271;77;21728;-42
2021/04/11 05:31:04;;;;;;;25.70;14.60;;;;;;;5.71;53.61;102048.52;1844714;77;21025;-41
2021/04/11 05:33:31;;;;;;;28.83;15.38;;;;;;;5.82;50.33;102048.80;1827015;78;21017;-42
2021/04/11 05:36:04;;;;;;;31.30;15.48;;;;;;;5.87;49.96;102047.63;1795453;78;21559;-41
2021/04/11 05:38:52;;;;;;;30.30;16.42;;;;;;;5.92;49.63;102043.90;1827085;78;20982;-41
2021/04/11 05:41:34;;;;;;;32.28;15.80;;;;;;;5.98;49.95;102048.80;1826969;78;21381;-42
2021/04/11 05:44:16;;;;;;;33.20;16.00;;;;;;;6.05;48.50;102040.83;1820459;78;21022;-41
2021/04/11 05:47:07;;;;;;;33.30;14.95;;;;;;;6.10;49.29;102048.67;1826569;78;20989;-42
2021/04/11 05:49:50;;;;;;;28.23;15.20;;;;;;;6.16;48.60;102038.13;1826977;78;20938;-41
2021/04/11 05:52:43;;;;;;;27.73;14.93;;;;;;;6.33;48.25;102039.83;1889896;75;22579;-42
2021/04/11 05:55:12;;;;;;;27.55;15.90;;;;;;;6.41;47.28;102041.72;1841159;77;20990;-41
2021/04/11 05:57:54;;;;;;;24.12;13.55;;;;;;;6.54;47.71;102039.91;1860761;77;21463;-41
2021/04/11 06:00:32;;;;;;;29.30;16.23;;;;;;;6.69;45.81;102036.81;1860659;77;21001;-42
2021/04/11 06:03:03;;;;;;;27.02;13.40;;;;;;;6.85;45.87;102045.75;1860658;77;20974;-41
2021/04/11 06:05:55;;;;;;;22.40;13.13;;;;;;;7.00;45.61;102046.50;1860648;77;21037;-42
2021/04/11 06:08:34;;;;;;;24.87;13.50;;;;;;;7.15;44.94;102046.39;1860766;77;20966;-41
2021/04/11 06:11:22;;;;;;;25.15;14.10;;;;;;;7.33;44.92;102045.50;1860627;77;21289;-43
2021/04/11 06:13:59;;;;;;;26.70;13.08;;;;;;;7.53;43.27;102051.88;1860696;77;20994;-41
2021/04/11 06:16:27;;;;;;;27.17;14.38;;;;;;;7.68;43.03;102048.30;1860687;77;20934;-42
2021/04/11 06:18:56;;;;;;;24.80;13.13;;;;;;;7.88;43.07;102051.67;1860712;77;21602;-40
2021/04/11 06:21:52;;;;;;;27.05;14.60;;;;;;;8.05;42.25;102051.56;1860736;77;20963;-41
2021/04/11 06:24:40;;;;;;;26.05;14.53;;;;;;;8.21;42.42;102049.27;1860958;77;21362;-45
2021/04/11 06:27:16;;;;;;;23.32;12.43;;;;;;;8.43;42.62;102049.58;1860579;77;21006;-42
2021/04/11 06:30:18;;;;;;;25.88;12.98;;;;;;;8.67;40.99;102049.55;1822751;78;21068;-42
2021/04/11 06:32:53;;;;;;;32.08;12.88;;;;;;;8.81;39.51;102040.31;1784398;80;20907;-41
2021/04/11 06:35:26;;;;;;;27.85;13.08;;;;;;;8.96;40.89;102047.80;1784461;80;21038;-42
2021/04/11 06:37:56;;;;;;;22.52;12.33;;;;;;;9.15;40.53;102047.66;1784412;80;21372;-42
2021/04/11 06:41:02;;;;;;;22.30;11.60;;;;;;;9.31;39.79;102047.42;1784155;80;21003;-40
2021/04/11 06:44:01;;;;;;;24.50;12.30;;;;;;;9.44;39.92;102049.28;1784375;80;21066;-43
2021/04/11 06:46:58;;;;;;;18.95;11.33;;;;;;;9.69;38.12;102040.95;1750034;80;21018;-41
2021/04/11 06:49:47;;;;;;;23.70;11.78;;;;;;;9.88;37.72;102037.70;1784426;80;21002;-42
2021/04/11 06:52:32;;;;;;;17.48;10.38;;;;;;;10.10;37.52;102036.59;1788953;80;21339;-42
2021/04/11 06:55:16;;;;;;;23.05;11.22;;;;;;;10.36;37.77;102039.84;1790111;79;21005;-43
2021/04/11 06:57:49;;;;;;;21.15;11.55;;;;;;;10.61;36.76;102038.31;1790206;80;20935;-42
2021/04/11 07:00:37;;;;;;;16.12;9.10;;;;;;;10.83;35.90;102033.27;1790188;80;20967;-42
2021/04/11 07:03:55;;;;;;;27.07;9.93;;;;;;;11.04;35.50;102036.84;1791778;79;21598;-42
2021/04/11 07:06:44;;;;;;;14.10;9.53;;;;;;;11.30;34.61;102030.45;1789702;80;21380;-42
2021/04/11 07:09:38;;;;;;;19.52;9.40;;;;;;;11.56;33.86;102029.67;1798734;79;21037;-43
2021/04/11 07:12:38;;;;;;;20.48;10.03;;;;;;;11.71;33.24;102020.20;1789643;80;21014;-42
2021/04/11 07:15:20;;;;;;;15.55;9.50;;;;;;;11.93;32.92;102026.28;1798880;79;21030;-42
2021/04/11 07:18:05;;;;;;;15.20;10.23;;;;;;;12.08;32.14;102024.16;1789674;80;20982;-42
2021/04/11 07:21:04;;;;;;;21.87;10.40;;;;;;;12.20;32.59;102019.39;1799190;79;21210;-42
2021/04/11 07:24:03;;;;;;;18.35;9.33;;;;;;;12.34;32.85;102012.47;1789578;80;21034;-41
2021/04/11 07:26:48;;;;;;;21.52;9.45;;;;;;;12.49;32.37;102011.59;1798896;79;21017;-42
2021/04/11 07:30:01;;;;;;;14.83;8.60;;;;;;;12.68;31.39;102010.67;1789832;80;21014;-41
2021/04/11 07:33:11;;;;;;;14.23;8.18;;;;;;;12.82;31.23;102011.52;1798808;79;21018;-42
2021/04/11 07:35:58;;;;;;;23.75;11.50;;;;;;;12.97;31.33;102005.82;1789579;80;21033;-42
2021/04/11 07:38:37;;;;;;;13.03;8.30;;;;;;;13.19;31.60;102011.36;1798766;79;20950;-43
2021/04/11 07:41:20;;;;;;;14.25;9.00;;;;;;;13.40;30.04;102009.53;1779299;80;20994;-41
2021/04/11 07:44:18;;;;;;;18.73;9.38;;;;;;;13.56;29.59;102000.38;1798869;79;21045;-41
2021/04/11 07:47:12;;;;;;;15.68;6.85;;;;;;;13.48;29.50;102005.17;1789199;80;21056;-41
2021/04/11 07:50:08;;;;;;;12.35;7.22;;;;;;;13.53;27.38;102001.70;1766240;80;21022;-42
2021/04/11 07:53:27;;;;;;;13.32;7.47;;;;;;;13.61;27.56;102010.31;1784819;80;21019;-43
2021/04/11 07:56:01;;;;;;;30.45;14.87;;;;;;;13.67;28.00;102006.36;1783747;80;21113;-42
2021/04/11 07:58:56;;;;;;;14.60;8.10;;;;;;;13.78;27.21;101998.48;1787339;80;21027;-42
2021/04/11 08:02:13;;;;;;;12.78;7.05;;;;;;;13.92;27.87;102003.59;1755240;80;20887;-42
2021/04/11 08:05:06;;;;;;;7.42;5.83;;;;;;;14.08;26.45;101996.09;1787382;80;21310;-41
2021/04/11 08:08:05;;;;;;;12.55;7.00;;;;;;;14.18;26.67;102002.50;1783697;80;21014;-41
2021/04/11 08:11:24;;;;;;;13.28;5.83;;;;;;;14.26;25.70;102007.65;1756962;80;20967;-41
2021/04/11 08:14:00;;;;;;;6.65;5.67;;;;;;;14.19;25.52;102002.92;1782132;79;21045;-42
2021/04/11 08:17:00;;;;;;;7.87;5.67;;;;;;;14.17;26.06;101987.76;1756106;80;20991;-42
2021/04/11 08:20:21;;;;;;;10.75;5.62;;;;;;;14.25;27.42;101992.91;1764451;80;22066;-42
2021/04/11 08:23:15;;;;;;;7.67;5.83;;;;;;;14.50;26.57;102003.92;1764453;81;20944;-42
2021/04/11 08:26:07;;;;;;;12.00;7.00;;;;;;;14.68;26.44;101990.28;1787629;80;20923;-42
2021/04/11 08:29:24;;;;;;;8.48;5.95;;;;;;;14.80;25.82;101984.52;1788772;80;21028;-42
2021/04/11 08:32:49;;;;;;;8.33;6.40;;;;;;;14.99;26.53;101988.64;1788842;80;20927;-42
2021/04/11 08:35:49;;;;;;;14.90;6.35;;;;;;;15.23;25.33;101978.34;1788964;80;21194;-43
2021/04/11 08:38:43;;;;;;;13.00;7.10;;;;;;;15.14;25.47;101968.02;1788925;79;21015;-42
2021/04/11 08:41:31;;;;;;;9.23;6.30;;;;;;;14.94;26.16;101961.34;1786630;80;21052;-41
2021/04/11 08:44:24;;;;;;;14.40;6.83;;;;;;;15.07;25.75;101958.14;1783642;80;21026;-43
2021/04/11 08:47:32;;;;;;;10.65;6.95;;;;;;;15.28;25.63;101947.84;1783655;80;21018;-45
2021/04/11 08:50:03;;;;;;;60.00;8.83;;;;;;;15.18;25.64;101957.53;1783595;80;22914;-43
2021/04/11 08:52:50;;;;;;;33.18;7.62;;;;;;;15.25;25.49;101959.63;1783459;80;21050;-43
2021/04/11 08:56:01;;;;;;;13.00;6.10;;;;;;;15.35;24.99;101948.16;1753668;80;21101;-43
2021/04/11 08:58:58;;;;;;;11.65;6.53;;;;;;;15.57;24.38;101948.30;1787240;79;20940;-42
2021/04/11 09:01:49;;;;;;;14.70;7.45;;;;;;;15.54;24.93;101945.28;1740050;82;20971;-42
2021/04/11 09:04:37;;;;;;;14.83;6.47;;;;;;;15.71;25.20;101947.61;1754421;81;21322;-42
2021/04/11 09:07:44;;;;;;;9.08;5.80;;;;;;;15.87;24.27;101933.86;1750980;82;21018;-43
2021/04/11 09:10:31;;;;;;;14.25;5.65;;;;;;;15.73;23.73;101938.00;1754418;81;21079;-42
2021/04/11 09:13:20;;;;;;;9.55;5.67;;;;;;;15.45;24.31;101932.38;1749334;80;21042;-45
2021/04/11 09:16:14;;;;;;;25.00;9.03;;;;;;;15.46;24.19;101931.04;1756092;81;21031;-43
2021/04/11 09:19:15;;;;;;;22.70;11.22;;;;;;;15.57;24.80;101932.64;1756201;81;21209;-44
2021/04/11 09:22:32;;;;;;;15.58;6.53;;;;;;;15.68;24.65;101924.64;1783469;80;21015;-42
2021/04/11 09:25:16;;;;;;;16.23;9.15;;;;;;;15.87;24.85;101919.50;1746144;80;21016;-43
2021/04/11 09:28:10;;;;;;;16.50;7.22;;;;;;;16.03;24.10;101900.52;1758621;80;21026;-43
2021/04/11 09:30:53;;;;;;;17.27;8.73;;;;;;;15.91;24.67;101909.47;1741344;80;21066;-43
2021/04/11 09:33:46;;;;;;;12.15;6.78;;;;;;;16.07;25.34;101911.79;1756156;80;21201;-43
2021/04/11 09:36:57;;;;;;;22.75;11.00;;;;;;;16.25;24.34;101914.49;1716225;80;20994;-42
2021/04/11 09:39:47;;;;;;;10.85;6.35;;;;;;;16.28;24.26;101909.20;1756094;81;20975;-42
2021/04/11 09:42:51;;;;;;;10.88;6.95;;;;;;;16.36;24.35;101895.57;1764716;80;21049;-43
2021/04/11 09:45:58;;;;;;;20.23;8.10;;;;;;;16.51;24.08;101907.89;1763106;80;20997;-43
2021/04/11 09:49:03;;;;;;;11.05;7.37;;;;;;;16.55;23.29;101897.81;1738940;81;21637;-43
2021/04/11 09:51:55;;;;;;;67.00;11.97;;;;;;;16.57;23.53;101896.03;1783790;80;21030;-43
2021/04/11 09:54:49;;;;;;;11.25;7.47;;;;;;;16.72;23.72;101886.12;1781608;80;20939;-43
2021/04/11 09:57:58;;;;;;;15.38;8.53;;;;;;;16.83;23.02;101889.81;1748342;81;21200;-43
2021/04/11 10:00:45;;;;;;;9.28;6.90;;;;;;;16.84;22.64;101885.88;1767887;79;21094;-42
2021/04/11 10:03:36;;;;;;;11.78;7.87;;;;;;;16.93;22.49;101900.04;1725335;79;21376;-42
2021/04/11 10:06:45;;;;;;;8.93;6.75;;;;;;;17.03;22.59;101888.08;1788768;80;21049;-41
2021/04/11 10:10:14;;;;;;;15.23;8.00;;;;;;;17.05;22.55;101903.29;1808252;78;21038;-46
2021/04/11 10:13:36;;;;;;;14.10;7.25;;;;;;;17.06;22.33;101899.34;1801382;79;21010;-43
2021/04/11 10:16:30;;;;;;;13.18;8.23;;;;;;;17.03;22.90;101890.27;1789325;79;21007;-42
2021/04/11 10:19:07;;;;;;;17.27;9.70;;;;;;;17.32;22.69;101894.41;1767160;79;21147;-42
2021/04/11 10:22:15;;;;;;;10.08;7.17;;;;;;;17.27;22.28;101885.36;1790760;78;21628;-42
2021/04/11 10:25:20;;;;;;;24.02;11.20;;;;;;;17.21;22.07;101868.50;1774917;80;21074;-43
2021/04/11 10:28:18;;;;;;;19.85;9.60;;;;;;;17.13;21.84;101885.69;1789975;78;21000;-42
2021/04/11 10:30:52;;;;;;;16.25;9.55;;;;;;;17.05;22.37;101886.29;1817266;78;21113;-43
2021/04/11 10:33:36;;;;;;;12.28;6.87;;;;;;;17.10;22.97;101892.30;1821691;78;22074;-42
2021/04/11 10:36:09;;;;;;;12.98;7.62;;;;;;;17.22;22.01;101876.30;1800525;78;21587;-44
2021/04/11 10:39:11;;;;;;;15.48;7.22;;;;;;;17.29;22.74;101883.56;1815558;78;21041;-43
2021/04/11 10:45:39;;;;;;;11.53;6.05;;;;;;;17.57;20.84;101880.26;1838417;76;23334;-42
2021/04/11 10:48:48;;;;;;;14.28;6.12;;;;;;;17.39;20.92;101873.73;1804637;78;20982;-44
2021/04/11 10:51:44;;;;;;;15.83;6.80;;;;;;;17.41;22.36;101885.02;1808475;79;22287;-43
2021/04/11 10:54:46;;;;;;;9.28;6.50;;;;;;;17.47;21.25;101889.25;1817579;79;21327;-43
2021/04/11 10:57:44;;;;;;;17.48;7.83;;;;;;;17.32;21.27;101875.63;1799115;79;21022;-42
2021/04/11 11:00:37;;;;;;;23.98;8.00;;;;;;;17.34;21.46;101863.83;1788493;79;20947;-43
2021/04/11 11:04:04;;;;;;;55.08;8.70;;;;;;;17.30;21.04;101836.87;1792330;79;20986;-43
2021/04/11 11:07:22;;;;;;;17.10;11.63;;;;;;;17.12;20.32;101827.72;1785505;80;21345;-42
2021/04/11 11:10:30;;;;;;;27.00;12.82;;;;;;;16.84;20.73;101834.88;1801685;79;21057;-43
2021/04/11 11:13:20;;;;;;;12.53;6.40;;;;;;;16.94;21.13;101836.38;1814290;79;20982;-43
2021/04/11 11:16:05;;;;;;;21.57;14.25;;;;;;;17.12;20.73;101839.50;1817316;79;21073;-42
2021/04/11 11:19:06;;;;;;;14.23;8.95;;;;;;;17.24;20.51;101826.56;1786096;79;21006;-43
2021/04/11 11:22:03;;;;;;;18.62;11.05;;;;;;;17.12;20.27;101834.70;1785412;80;21377;-43
2021/04/11 11:25:07;;;;;;;27.40;12.95;;;;;;;17.15;21.44;101833.31;1785379;80;21018;-43
2021/04/11 11:27:51;;;;;;;59.73;28.12;;;;;;;17.09;21.28;101820.80;1781203;79;20979;-44
2021/04/11 11:30:42;;;;;;;49.15;23.77;;;;;;;17.26;21.30;101820.84;1803778;79;21124;-43
2021/04/11 11:33:43;;;;;;;58.45;10.00;;;;;;;17.52;20.59;101805.77;1781012;80;21101;-43
2021/04/11 11:36:31;;;;;;;79.47;36.17;;;;;;;17.73;19.55;101801.33;1719387;81;21371;-43
2021/04/11 11:39:36;;;;;;;36.98;19.00;;;;;;;17.72;19.68;101798.30;1756219;80;21073;-43
2021/04/11 11:42:29;;;;;;;26.68;9.93;;;;;;;17.83;20.28;101796.70;1765913;80;21049;-43
2021/04/11 11:45:32;;;;;;;13.10;7.87;;;;;;;17.89;20.14;101797.36;1675829;84;20958;-43
2021/04/11 11:48:08;;;;;;;21.48;11.12;;;;;;;17.94;20.19;101788.95;1690547;83;21096;-42
2021/04/11 11:51:09;;;;;;;21.97;11.00;;;;;;;18.11;20.23;101778.92;1724288;82;21203;-43
2021/04/11 11:54:01;;;;;;;12.18;7.42;;;;;;;18.24;19.44;101772.39;1709195;82;21647;-43
2021/04/11 11:56:41;;;;;;;23.62;12.33;;;;;;;18.32;19.06;101768.23;1732120;82;21579;-44
2021/04/11 11:59:31;;;;;;;17.17;9.53;;;;;;;18.38;19.87;101764.98;1704884;82;21030;-43
2021/04/11 12:02:34;;;;;;;33.13;16.20;;;;;;;18.42;19.89;101765.73;1705307;82;20974;-43
2021/04/11 12:05:14;;;;;;;14.03;9.55;;;;;;;18.39;19.47;101780.24;1702749;84;21380;-43
2021/04/11 12:07:50;;;;;;;129.23;13.72;;;;;;;18.42;18.69;101754.41;1753760;81;20946;-43
2021/04/11 12:10:31;;;;;;;33.48;12.78;;;;;;;18.18;19.01;101758.17;1752810;80;21077;-43
2021/04/11 12:13:12;;;;;;;18.82;8.58;;;;;;;18.02;19.78;101753.38;1750642;81;21053;-43
2021/04/11 12:16:08;;;;;;;25.27;9.45;;;;;;;17.99;19.67;101748.20;1752893;80;21623;-43
2021/04/11 12:18:40;;;;;;;;;;;;;;;17.95;20.08;101744.83;1780304;80;21204;-43
2021/04/11 12:21:23;;;;;;;20.62;12.28;;;;;;;18.14;20.05;101742.14;1784528;80;20147;-43
2021/04/11 12:24:08;;;;;;;34.95;20.95;;;;;;;18.24;19.70;101742.26;1784002;79;20994;-47
2021/04/11 12:26:40;;;;;;;16.48;8.80;;;;;;;18.23;20.37;101734.87;1785127;80;21532;-42
2021/04/11 12:29:10;;;;;;;88.35;11.63;;;;;;;18.24;19.82;101737.02;1732856;80;20947;-43
2021/04/11 12:32:14;;;;;;;15.13;9.35;;;;;;;18.18;20.92;101729.35;1784778;80;21197;-43
2021/04/11 12:35:08;;;;;;;20.23;10.45;;;;;;;18.32;20.22;101727.17;1784762;80;21184;-43
2021/04/11 12:38:00;;;;;;;24.07;10.00;;;;;;;18.23;20.35;101724.38;1772779;80;21058;-42